sensor_id;sensor_type;location;lat;lon;timestamp;P1;durP1;ratioP1;P2;durP2;ratioP2
67352;SDS011;54238;52.278;21.056;2023-06-14T00:01:39;12.70;;;10.60;;
67352;SDS011;54238;52.278;21.056;2023-06-14T00:04:13;16.00;;;10.00;;
67352;SDS011;54238;52.278;21.056;2023-06-14T00:06:40;15.30;;;9.60;;
67352;SDS011;54238;52.278;21.056;2023-06-14T00:09:17;12.20;;;8.90;;
67352;SDS011;54238;52.278;21.056;2023-06-14T00:11:47;12.50;;;9.00;;
67352;SDS011;54238;52.278;21.056;2023-06-14T00:14:16;12.20;;;8.90;;
67352;SDS011;54238;52.278;21.056;2023-06-14T00:16:48;13.80;;;9.20;;
67352;SDS011;54238;52.278;21.056;2023-06-14T00:19:17;12.40;;;8.60;;
67352;SDS011;54238;52.278;21.056;2023-06-14T00:21:48;15.00;;;8.70;;
67352;SDS011;54238;52.278;21.056;2023-06-14T00:24:18;13.30;;;8.60;;
67352;SDS011;54238;52.278;21.056;2023-06-14T00:26:49;16.50;;;8.80;;
67352;SDS011;54238;52.278;21.056;2023-06-14T00:29:24;14.70;;;8.70;;
67352;SDS011;54238;52.278;21.056;2023-06-14T00:31:57;10.90;;;8.20;;
67352;SDS011;54238;52.278;21.056;2023-06-14T00:34:27;11.50;;;8.50;;
67352;SDS011;54238;52.278;21.056;2023-06-14T00:36:54;11.00;;;9.10;;
67352;SDS011;54238;52.278;21.056;2023-06-14T00:39:28;11.80;;;8.80;;
67352;SDS011;54238;52.278;21.056;2023-06-14T00:41:55;11.40;;;8.90;;
67352;SDS011;54238;52.278;21.056;2023-06-14T00:44:28;17.60;;;9.10;;
67352;SDS011;54238;52.278;21.056;2023-06-14T00:46:59;11.00;;;9.30;;
67352;SDS011;54238;52.278;21.056;2023-06-14T00:49:29;11.10;;;8.70;;
67352;SDS011;54238;52.278;21.056;2023-06-14T00:52:02;12.30;;;9.70;;
67352;SDS011;54238;52.278;21.056;2023-06-14T00:54:42;15.60;;;8.80;;
67352;SDS011;54238;52.278;21.056;2023-06-14T00:57:14;10.30;;;8.70;;
67352;SDS011;54238;52.278;21.056;2023-06-14T00:59:46;11.30;;;9.00;;
67352;SDS011;54238;52.278;21.056;2023-06-14T01:02:17;10.40;;;8.40;;
67352;SDS011;54238;52.278;21.056;2023-06-14T01:04:48;11.10;;;8.40;;
67352;SDS011;54238;52.278;21.056;2023-06-14T01:11:02;10.50;;;8.50;;
67352;SDS011;54238;52.278;21.056;2023-06-14T01:13:45;10.00;;;8.00;;
67352;SDS011;54238;52.278;21.056;2023-06-14T01:16:20;16.10;;;8.70;;
67352;SDS011;54238;52.278;21.056;2023-06-14T01:18:55;10.10;;;8.10;;
67352;SDS011;54238;52.278;21.056;2023-06-14T01:21:27;12.20;;;8.30;;
67352;SDS011;54238;52.278;21.056;2023-06-14T01:23:58;9.90;;;8.60;;
67352;SDS011;54238;52.278;21.056;2023-06-14T01:26:34;11.10;;;8.90;;
67352;SDS011;54238;52.278;21.056;2023-06-14T01:29:07;13.20;;;7.60;;
67352;SDS011;54238;52.278;21.056;2023-06-14T01:31:43;12.00;;;9.70;;
67352;SDS011;54238;52.278;21.056;2023-06-14T01:34:12;9.60;;;8.30;;
67352;SDS011;54238;52.278;21.056;2023-06-14T01:36:43;13.20;;;8.10;;
67352;SDS011;54238;52.278;21.056;2023-06-14T01:39:17;13.90;;;8.50;;
67352;SDS011;54238;52.278;21.056;2023-06-14T01:41:49;11.60;;;8.70;;
67352;SDS011;54238;52.278;21.056;2023-06-14T01:44:18;10.00;;;8.40;;
67352;SDS011;54238;52.278;21.056;2023-06-14T01:46:49;10.30;;;8.70;;
67352;SDS011;54238;52.278;21.056;2023-06-14T01:49:20;10.60;;;8.50;;
67352;SDS011;54238;52.278;21.056;2023-06-14T01:51:49;13.20;;;8.50;;
67352;SDS011;54238;52.278;21.056;2023-06-14T01:54:19;10.60;;;8.00;;
67352;SDS011;54238;52.278;21.056;2023-06-14T01:56:46;12.70;;;8.60;;
67352;SDS011;54238;52.278;21.056;2023-06-14T01:59:15;10.40;;;7.20;;
67352;SDS011;54238;52.278;21.056;2023-06-14T02:01:45;16.20;;;8.70;;
67352;SDS011;54238;52.278;21.056;2023-06-14T02:04:12;9.70;;;8.00;;
67352;SDS011;54238;52.278;21.056;2023-06-14T02:06:42;12.40;;;7.90;;
67352;SDS011;54238;52.278;21.056;2023-06-14T02:09:09;10.40;;;8.20;;
67352;SDS011;54238;52.278;21.056;2023-06-14T02:11:39;8.60;;;7.10;;
67352;SDS011;54238;52.278;21.056;2023-06-14T02:14:11;12.00;;;8.30;;
67352;SDS011;54238;52.278;21.056;2023-06-14T02:16:41;12.50;;;7.90;;
67352;SDS011;54238;52.278;21.056;2023-06-14T02:19:18;11.10;;;7.10;;
67352;SDS011;54238;52.278;21.056;2023-06-14T02:21:48;10.90;;;7.50;;
67352;SDS011;54238;52.278;21.056;2023-06-14T02:24:23;11.20;;;7.80;;
67352;SDS011;54238;52.278;21.056;2023-06-14T02:26:57;10.20;;;7.50;;
67352;SDS011;54238;52.278;21.056;2023-06-14T02:29:29;11.30;;;8.30;;
67352;SDS011;54238;52.278;21.056;2023-06-14T02:31:59;10.80;;;7.90;;
67352;SDS011;54238;52.278;21.056;2023-06-14T02:34:27;17.20;;;8.10;;
67352;SDS011;54238;52.278;21.056;2023-06-14T02:36:59;10.00;;;8.00;;
67352;SDS011;54238;52.278;21.056;2023-06-14T02:39:31;10.40;;;7.80;;
67352;SDS011;54238;52.278;21.056;2023-06-14T02:42:01;9.80;;;7.70;;
67352;SDS011;54238;52.278;21.056;2023-06-14T02:44:30;9.90;;;7.70;;
67352;SDS011;54238;52.278;21.056;2023-06-14T02:46:59;11.10;;;8.30;;
67352;SDS011;54238;52.278;21.056;2023-06-14T02:49:28;11.10;;;7.30;;
67352;SDS011;54238;52.278;21.056;2023-06-14T02:52:00;10.50;;;7.90;;
67352;SDS011;54238;52.278;21.056;2023-06-14T02:54:34;9.40;;;7.40;;
67352;SDS011;54238;52.278;21.056;2023-06-14T02:57:09;11.80;;;8.30;;
67352;SDS011;54238;52.278;21.056;2023-06-14T02:59:37;12.50;;;8.20;;
67352;SDS011;54238;52.278;21.056;2023-06-14T03:02:06;13.30;;;8.20;;
67352;SDS011;54238;52.278;21.056;2023-06-14T03:04:38;9.30;;;7.40;;
67352;SDS011;54238;52.278;21.056;2023-06-14T03:07:06;7.90;;;7.00;;
67352;SDS011;54238;52.278;21.056;2023-06-14T03:09:38;11.80;;;7.60;;
67352;SDS011;54238;52.278;21.056;2023-06-14T03:12:09;19.60;;;8.30;;
67352;SDS011;54238;52.278;21.056;2023-06-14T03:14:36;16.00;;;8.40;;
67352;SDS011;54238;52.278;21.056;2023-06-14T03:17:05;9.70;;;7.50;;
67352;SDS011;54238;52.278;21.056;2023-06-14T03:19:32;10.50;;;7.90;;
67352;SDS011;54238;52.278;21.056;2023-06-14T03:22:04;7.60;;;6.80;;
67352;SDS011;54238;52.278;21.056;2023-06-14T03:24:34;12.70;;;7.30;;
67352;SDS011;54238;52.278;21.056;2023-06-14T03:27:04;7.70;;;6.80;;
67352;SDS011;54238;52.278;21.056;2023-06-14T03:29:36;13.30;;;7.90;;
67352;SDS011;54238;52.278;21.056;2023-06-14T03:32:06;11.40;;;8.00;;
67352;SDS011;54238;52.278;21.056;2023-06-14T03:34:38;12.50;;;7.50;;
67352;SDS011;54238;52.278;21.056;2023-06-14T03:37:10;9.10;;;7.50;;
67352;SDS011;54238;52.278;21.056;2023-06-14T03:39:40;11.70;;;7.70;;
67352;SDS011;54238;52.278;21.056;2023-06-14T03:42:13;11.30;;;8.10;;
67352;SDS011;54238;52.278;21.056;2023-06-14T03:44:44;13.40;;;8.70;;
67352;SDS011;54238;52.278;21.056;2023-06-14T03:47:18;13.50;;;8.90;;
67352;SDS011;54238;52.278;21.056;2023-06-14T03:49:50;8.90;;;7.70;;
67352;SDS011;54238;52.278;21.056;2023-06-14T03:52:19;11.90;;;8.40;;
67352;SDS011;54238;52.278;21.056;2023-06-14T03:54:48;8.90;;;8.10;;
67352;SDS011;54238;52.278;21.056;2023-06-14T03:57:16;11.30;;;7.70;;
67352;SDS011;54238;52.278;21.056;2023-06-14T03:59:43;12.50;;;8.30;;
67352;SDS011;54238;52.278;21.056;2023-06-14T04:02:15;10.30;;;8.60;;
67352;SDS011;54238;52.278;21.056;2023-06-14T04:04:45;9.60;;;7.90;;
67352;SDS011;54238;52.278;21.056;2023-06-14T04:07:20;10.40;;;8.10;;
67352;SDS011;54238;52.278;21.056;2023-06-14T04:09:50;14.10;;;8.30;;
67352;SDS011;54238;52.278;21.056;2023-06-14T04:12:19;13.10;;;7.90;;
67352;SDS011;54238;52.278;21.056;2023-06-14T04:14:50;10.00;;;8.30;;
67352;SDS011;54238;52.278;21.056;2023-06-14T04:17:18;13.10;;;7.70;;
67352;SDS011;54238;52.278;21.056;2023-06-14T04:19:50;10.90;;;8.10;;
67352;SDS011;54238;52.278;21.056;2023-06-14T04:22:17;9.30;;;7.30;;
67352;SDS011;54238;52.278;21.056;2023-06-14T04:24:49;13.30;;;7.50;;
67352;SDS011;54238;52.278;21.056;2023-06-14T04:27:17;9.00;;;7.10;;
67352;SDS011;54238;52.278;21.056;2023-06-14T04:29:48;9.90;;;7.90;;
67352;SDS011;54238;52.278;21.056;2023-06-14T04:32:16;11.60;;;7.90;;
67352;SDS011;54238;52.278;21.056;2023-06-14T04:34:45;10.60;;;8.30;;
67352;SDS011;54238;52.278;21.056;2023-06-14T04:37:17;12.80;;;7.70;;
67352;SDS011;54238;52.278;21.056;2023-06-14T04:39:44;9.80;;;7.70;;
67352;SDS011;54238;52.278;21.056;2023-06-14T04:42:14;12.80;;;8.30;;
67352;SDS011;54238;52.278;21.056;2023-06-14T04:44:43;12.70;;;7.90;;
67352;SDS011;54238;52.278;21.056;2023-06-14T04:47:18;13.80;;;8.40;;
67352;SDS011;54238;52.278;21.056;2023-06-14T04:49:50;12.10;;;7.60;;
67352;SDS011;54238;52.278;21.056;2023-06-14T04:52:22;10.60;;;7.90;;
67352;SDS011;54238;52.278;21.056;2023-06-14T04:54:56;12.40;;;7.30;;
67352;SDS011;54238;52.278;21.056;2023-06-14T04:57:27;12.90;;;7.40;;
67352;SDS011;54238;52.278;21.056;2023-06-14T04:59:55;14.20;;;7.50;;
67352;SDS011;54238;52.278;21.056;2023-06-14T05:02:31;7.90;;;7.00;;
67352;SDS011;54238;52.278;21.056;2023-06-14T05:05:02;8.80;;;7.10;;
67352;SDS011;54238;52.278;21.056;2023-06-14T05:07:36;11.10;;;7.40;;
67352;SDS011;54238;52.278;21.056;2023-06-14T05:10:08;13.80;;;8.50;;
67352;SDS011;54238;52.278;21.056;2023-06-14T05:12:35;10.20;;;7.40;;
67352;SDS011;54238;52.278;21.056;2023-06-14T05:15:08;10.70;;;8.00;;
67352;SDS011;54238;52.278;21.056;2023-06-14T05:17:38;11.90;;;8.30;;
67352;SDS011;54238;52.278;21.056;2023-06-14T05:20:08;10.40;;;8.70;;
67352;SDS011;54238;52.278;21.056;2023-06-14T05:22:39;14.10;;;8.90;;
67352;SDS011;54238;52.278;21.056;2023-06-14T05:25:06;10.70;;;8.30;;
67352;SDS011;54238;52.278;21.056;2023-06-14T05:27:36;13.50;;;8.10;;
67352;SDS011;54238;52.278;21.056;2023-06-14T05:30:04;16.40;;;8.70;;
67352;SDS011;54238;52.278;21.056;2023-06-14T05:32:32;16.30;;;9.10;;
67352;SDS011;54238;52.278;21.056;2023-06-14T05:34:59;12.10;;;8.90;;
67352;SDS011;54238;52.278;21.056;2023-06-14T05:37:27;11.30;;;8.40;;
67352;SDS011;54238;52.278;21.056;2023-06-14T05:39:54;15.60;;;8.10;;
67352;SDS011;54238;52.278;21.056;2023-06-14T05:42:29;12.30;;;6.90;;
67352;SDS011;54238;52.278;21.056;2023-06-14T05:45:02;12.80;;;7.10;;
67352;SDS011;54238;52.278;21.056;2023-06-14T05:47:32;11.50;;;8.10;;
67352;SDS011;54238;52.278;21.056;2023-06-14T05:50:05;8.90;;;7.80;;
67352;SDS011;54238;52.278;21.056;2023-06-14T05:52:32;10.70;;;8.10;;
67352;SDS011;54238;52.278;21.056;2023-06-14T05:55:07;11.30;;;7.80;;
67352;SDS011;54238;52.278;21.056;2023-06-14T05:57:37;11.60;;;7.80;;
67352;SDS011;54238;52.278;21.056;2023-06-14T06:00:08;11.10;;;8.00;;
67352;SDS011;54238;52.278;21.056;2023-06-14T06:02:44;10.50;;;7.80;;
67352;SDS011;54238;52.278;21.056;2023-06-14T06:05:16;10.50;;;7.70;;
67352;SDS011;54238;52.278;21.056;2023-06-14T06:07:46;12.70;;;8.30;;
67352;SDS011;54238;52.278;21.056;2023-06-14T06:10:13;9.90;;;8.30;;
67352;SDS011;54238;52.278;21.056;2023-06-14T06:12:43;10.90;;;8.70;;
67352;SDS011;54238;52.278;21.056;2023-06-14T06:15:13;10.00;;;8.30;;
67352;SDS011;54238;52.278;21.056;2023-06-14T06:17:43;18.00;;;8.30;;
67352;SDS011;54238;52.278;21.056;2023-06-14T06:20:13;12.10;;;8.60;;
67352;SDS011;54238;52.278;21.056;2023-06-14T06:22:40;9.70;;;8.40;;
67352;SDS011;54238;52.278;21.056;2023-06-14T06:25:10;12.20;;;8.00;;
67352;SDS011;54238;52.278;21.056;2023-06-14T06:27:37;10.50;;;9.10;;
67352;SDS011;54238;52.278;21.056;2023-06-14T06:30:09;20.40;;;8.80;;
67352;SDS011;54238;52.278;21.056;2023-06-14T06:32:40;11.30;;;8.50;;
67352;SDS011;54238;52.278;21.056;2023-06-14T06:35:07;17.50;;;11.40;;
67352;SDS011;54238;52.278;21.056;2023-06-14T06:37:35;14.00;;;9.30;;
67352;SDS011;54238;52.278;21.056;2023-06-14T06:40:03;12.90;;;8.70;;
67352;SDS011;54238;52.278;21.056;2023-06-14T06:42:37;12.60;;;8.80;;
67352;SDS011;54238;52.278;21.056;2023-06-14T06:45:11;14.60;;;8.90;;
67352;SDS011;54238;52.278;21.056;2023-06-14T06:47:40;14.80;;;8.60;;
67352;SDS011;54238;52.278;21.056;2023-06-14T06:50:08;17.40;;;9.20;;
67352;SDS011;54238;52.278;21.056;2023-06-14T06:52:35;14.20;;;8.70;;
67352;SDS011;54238;52.278;21.056;2023-06-14T06:55:05;12.10;;;9.40;;
67352;SDS011;54238;52.278;21.056;2023-06-14T06:57:33;10.30;;;8.00;;
67352;SDS011;54238;52.278;21.056;2023-06-14T07:00:00;10.40;;;7.70;;
67352;SDS011;54238;52.278;21.056;2023-06-14T07:02:34;16.60;;;9.10;;
67352;SDS011;54238;52.278;21.056;2023-06-14T07:05:03;12.00;;;8.40;;
67352;SDS011;54238;52.278;21.056;2023-06-14T07:07:31;10.70;;;8.40;;
67352;SDS011;54238;52.278;21.056;2023-06-14T07:10:04;12.60;;;9.00;;
67352;SDS011;54238;52.278;21.056;2023-06-14T07:12:34;12.10;;;8.60;;
67352;SDS011;54238;52.278;21.056;2023-06-14T07:15:08;16.00;;;9.70;;
67352;SDS011;54238;52.278;21.056;2023-06-14T07:17:38;16.90;;;10.00;;
67352;SDS011;54238;52.278;21.056;2023-06-14T07:20:09;13.20;;;9.20;;
67352;SDS011;54238;52.278;21.056;2023-06-14T07:22:42;11.90;;;9.50;;
67352;SDS011;54238;52.278;21.056;2023-06-14T07:25:17;16.70;;;8.80;;
67352;SDS011;54238;52.278;21.056;2023-06-14T07:27:47;13.40;;;8.30;;
67352;SDS011;54238;52.278;21.056;2023-06-14T07:30:16;10.10;;;8.10;;
67352;SDS011;54238;52.278;21.056;2023-06-14T07:32:46;14.80;;;8.40;;
67352;SDS011;54238;52.278;21.056;2023-06-14T07:35:16;18.00;;;9.20;;
67352;SDS011;54238;52.278;21.056;2023-06-14T07:37:44;8.00;;;7.10;;
67352;SDS011;54238;52.278;21.056;2023-06-14T07:40:15;9.60;;;7.30;;
67352;SDS011;54238;52.278;21.056;2023-06-14T07:42:44;10.40;;;8.10;;
67352;SDS011;54238;52.278;21.056;2023-06-14T07:45:15;10.60;;;7.50;;
67352;SDS011;54238;52.278;21.056;2023-06-14T07:47:43;9.90;;;8.00;;
67352;SDS011;54238;52.278;21.056;2023-06-14T07:50:15;15.30;;;8.00;;
67352;SDS011;54238;52.278;21.056;2023-06-14T07:52:45;14.10;;;8.50;;
67352;SDS011;54238;52.278;21.056;2023-06-14T07:55:15;13.10;;;8.40;;
67352;SDS011;54238;52.278;21.056;2023-06-14T07:57:44;12.20;;;8.60;;
67352;SDS011;54238;52.278;21.056;2023-06-14T08:00:12;9.60;;;7.40;;
67352;SDS011;54238;52.278;21.056;2023-06-14T08:02:43;13.10;;;8.30;;
67352;SDS011;54238;52.278;21.056;2023-06-14T08:05:13;11.40;;;7.50;;
67352;SDS011;54238;52.278;21.056;2023-06-14T08:07:43;14.80;;;8.40;;
67352;SDS011;54238;52.278;21.056;2023-06-14T08:10:14;11.40;;;7.30;;
67352;SDS011;54238;52.278;21.056;2023-06-14T08:12:45;12.70;;;7.70;;
67352;SDS011;54238;52.278;21.056;2023-06-14T08:15:17;9.50;;;7.50;;
67352;SDS011;54238;52.278;21.056;2023-06-14T08:17:47;12.10;;;7.30;;
67352;SDS011;54238;52.278;21.056;2023-06-14T08:20:22;14.40;;;7.60;;
67352;SDS011;54238;52.278;21.056;2023-06-14T08:22:52;10.50;;;7.20;;
67352;SDS011;54238;52.278;21.056;2023-06-14T08:25:25;12.20;;;7.50;;
67352;SDS011;54238;52.278;21.056;2023-06-14T08:27:54;9.80;;;6.80;;
67352;SDS011;54238;52.278;21.056;2023-06-14T08:30:27;11.90;;;7.20;;
67352;SDS011;54238;52.278;21.056;2023-06-14T08:32:54;13.70;;;6.40;;
67352;SDS011;54238;52.278;21.056;2023-06-14T08:35:24;11.60;;;6.10;;
67352;SDS011;54238;52.278;21.056;2023-06-14T08:37:52;9.40;;;5.80;;
67352;SDS011;54238;52.278;21.056;2023-06-14T08:40:23;9.80;;;6.10;;
67352;SDS011;54238;52.278;21.056;2023-06-14T08:42:52;8.10;;;6.20;;
67352;SDS011;54238;52.278;21.056;2023-06-14T08:45:21;10.30;;;6.50;;
67352;SDS011;54238;52.278;21.056;2023-06-14T08:47:50;11.50;;;6.20;;
67352;SDS011;54238;52.278;21.056;2023-06-14T08:50:27;9.80;;;5.90;;
67352;SDS011;54238;52.278;21.056;2023-06-14T08:53:01;10.00;;;5.50;;
67352;SDS011;54238;52.278;21.056;2023-06-14T08:55:30;10.90;;;5.70;;
67352;SDS011;54238;52.278;21.056;2023-06-14T08:58:00;8.90;;;6.00;;
67352;SDS011;54238;52.278;21.056;2023-06-14T09:00:28;10.60;;;6.20;;
67352;SDS011;54238;52.278;21.056;2023-06-14T09:03:02;9.70;;;6.20;;
67352;SDS011;54238;52.278;21.056;2023-06-14T09:05:32;9.30;;;5.40;;
67352;SDS011;54238;52.278;21.056;2023-06-14T09:08:02;10.30;;;6.50;;
67352;SDS011;54238;52.278;21.056;2023-06-14T09:10:31;8.60;;;5.90;;
67352;SDS011;54238;52.278;21.056;2023-06-14T09:13:06;11.40;;;6.40;;
67352;SDS011;54238;52.278;21.056;2023-06-14T09:15:35;9.50;;;5.90;;
67352;SDS011;54238;52.278;21.056;2023-06-14T09:18:06;9.60;;;6.20;;
67352;SDS011;54238;52.278;21.056;2023-06-14T09:20:37;8.20;;;5.00;;
67352;SDS011;54238;52.278;21.056;2023-06-14T09:23:04;9.70;;;5.60;;
67352;SDS011;54238;52.278;21.056;2023-06-14T09:25:46;8.10;;;4.50;;
67352;SDS011;54238;52.278;21.056;2023-06-14T09:28:13;10.10;;;4.50;;
67352;SDS011;54238;52.278;21.056;2023-06-14T09:30:41;8.50;;;4.10;;
67352;SDS011;54238;52.278;21.056;2023-06-14T09:33:08;6.50;;;4.20;;
67352;SDS011;54238;52.278;21.056;2023-06-14T09:35:35;9.80;;;4.70;;
67352;SDS011;54238;52.278;21.056;2023-06-14T09:38:05;14.10;;;4.80;;
67352;SDS011;54238;52.278;21.056;2023-06-14T09:43:08;9.20;;;5.80;;
67352;SDS011;54238;52.278;21.056;2023-06-14T09:45:44;13.80;;;5.70;;
67352;SDS011;54238;52.278;21.056;2023-06-14T09:48:15;9.40;;;5.80;;
67352;SDS011;54238;52.278;21.056;2023-06-14T09:50:45;10.10;;;5.60;;
67352;SDS011;54238;52.278;21.056;2023-06-14T09:53:20;11.80;;;5.30;;
67352;SDS011;54238;52.278;21.056;2023-06-14T09:55:54;13.70;;;5.00;;
67352;SDS011;54238;52.278;21.056;2023-06-14T09:58:26;6.30;;;4.90;;
67352;SDS011;54238;52.278;21.056;2023-06-14T10:00:55;10.70;;;4.90;;
67352;SDS011;54238;52.278;21.056;2023-06-14T10:03:28;6.30;;;4.50;;
67352;SDS011;54238;52.278;21.056;2023-06-14T10:06:02;12.20;;;4.80;;
67352;SDS011;54238;52.278;21.056;2023-06-14T10:08:40;11.70;;;4.30;;
67352;SDS011;54238;52.278;21.056;2023-06-14T10:11:09;8.80;;;4.40;;
67352;SDS011;54238;52.278;21.056;2023-06-14T10:13:45;5.40;;;4.30;;
67352;SDS011;54238;52.278;21.056;2023-06-14T10:16:20;6.30;;;3.30;;
67352;SDS011;54238;52.278;21.056;2023-06-14T10:22:00;7.30;;;3.60;;
67352;SDS011;54238;52.278;21.056;2023-06-14T10:24:41;5.50;;;3.60;;
67352;SDS011;54238;52.278;21.056;2023-06-14T10:27:17;11.10;;;5.50;;
67352;SDS011;54238;52.278;21.056;2023-06-14T10:32:23;7.40;;;3.90;;
67352;SDS011;54238;52.278;21.056;2023-06-14T10:35:04;5.80;;;3.40;;
67352;SDS011;54238;52.278;21.056;2023-06-14T10:37:38;8.00;;;4.20;;
67352;SDS011;54238;52.278;21.056;2023-06-14T10:40:06;5.00;;;4.00;;
67352;SDS011;54238;52.278;21.056;2023-06-14T10:42:37;7.90;;;3.70;;
67352;SDS011;54238;52.278;21.056;2023-06-14T10:45:12;5.40;;;3.50;;
67352;SDS011;54238;52.278;21.056;2023-06-14T10:47:51;13.40;;;3.50;;
67352;SDS011;54238;52.278;21.056;2023-06-14T10:50:29;5.50;;;3.60;;
67352;SDS011;54238;52.278;21.056;2023-06-14T10:52:56;12.90;;;3.80;;
67352;SDS011;54238;52.278;21.056;2023-06-14T10:55:24;5.80;;;4.10;;
67352;SDS011;54238;52.278;21.056;2023-06-14T10:58:01;10.80;;;4.30;;
67352;SDS011;54238;52.278;21.056;2023-06-14T11:00:33;7.80;;;3.80;;
67352;SDS011;54238;52.278;21.056;2023-06-14T11:03:31;11.20;;;4.40;;
67352;SDS011;54238;52.278;21.056;2023-06-14T11:06:14;10.00;;;4.20;;
67352;SDS011;54238;52.278;21.056;2023-06-14T11:09:09;5.00;;;4.00;;
67352;SDS011;54238;52.278;21.056;2023-06-14T11:11:51;9.00;;;4.20;;
67352;SDS011;54238;52.278;21.056;2023-06-14T11:14:20;8.00;;;4.50;;
67352;SDS011;54238;52.278;21.056;2023-06-14T11:16:52;5.70;;;4.10;;
67352;SDS011;54238;52.278;21.056;2023-06-14T11:19:19;5.80;;;3.90;;
67352;SDS011;54238;52.278;21.056;2023-06-14T11:21:51;9.60;;;3.80;;
67352;SDS011;54238;52.278;21.056;2023-06-14T11:24:20;7.60;;;3.90;;
67352;SDS011;54238;52.278;21.056;2023-06-14T11:26:52;5.40;;;4.00;;
67352;SDS011;54238;52.278;21.056;2023-06-14T11:29:20;6.00;;;3.20;;
67352;SDS011;54238;52.278;21.056;2023-06-14T11:31:47;6.80;;;3.30;;
67352;SDS011;54238;52.278;21.056;2023-06-14T11:34:17;6.50;;;3.60;;
67352;SDS011;54238;52.278;21.056;2023-06-14T11:36:47;7.30;;;3.40;;
67352;SDS011;54238;52.278;21.056;2023-06-14T11:39:23;5.30;;;3.60;;
67352;SDS011;54238;52.278;21.056;2023-06-14T11:41:51;4.60;;;3.60;;
67352;SDS011;54238;52.278;21.056;2023-06-14T11:44:19;5.40;;;3.60;;
67352;SDS011;54238;52.278;21.056;2023-06-14T11:46:46;8.10;;;3.30;;
67352;SDS011;54238;52.278;21.056;2023-06-14T11:49:13;4.70;;;3.00;;
67352;SDS011;54238;52.278;21.056;2023-06-14T11:51:42;4.50;;;3.40;;
67352;SDS011;54238;52.278;21.056;2023-06-14T11:54:12;7.40;;;2.60;;
67352;SDS011;54238;52.278;21.056;2023-06-14T11:56:42;6.20;;;3.80;;
67352;SDS011;54238;52.278;21.056;2023-06-14T11:59:13;5.40;;;2.80;;
67352;SDS011;54238;52.278;21.056;2023-06-14T12:01:42;4.90;;;2.70;;
67352;SDS011;54238;52.278;21.056;2023-06-14T12:04:23;8.80;;;2.90;;
67352;SDS011;54238;52.278;21.056;2023-06-14T12:06:53;5.20;;;3.10;;
67352;SDS011;54238;52.278;21.056;2023-06-14T12:09:24;4.90;;;2.40;;
67352;SDS011;54238;52.278;21.056;2023-06-14T12:12:01;7.50;;;2.90;;
67352;SDS011;54238;52.278;21.056;2023-06-14T12:14:33;5.10;;;3.00;;
67352;SDS011;54238;52.278;21.056;2023-06-14T12:17:06;3.50;;;2.50;;
67352;SDS011;54238;52.278;21.056;2023-06-14T12:19:44;8.00;;;3.20;;
67352;SDS011;54238;52.278;21.056;2023-06-14T12:22:13;5.50;;;3.30;;
67352;SDS011;54238;52.278;21.056;2023-06-14T12:24:46;4.40;;;3.30;;
67352;SDS011;54238;52.278;21.056;2023-06-14T12:27:13;4.40;;;3.50;;
67352;SDS011;54238;52.278;21.056;2023-06-14T12:29:42;8.20;;;3.10;;
67352;SDS011;54238;52.278;21.056;2023-06-14T12:32:12;4.70;;;3.10;;
67352;SDS011;54238;52.278;21.056;2023-06-14T12:34:39;8.10;;;3.40;;
67352;SDS011;54238;52.278;21.056;2023-06-14T12:37:09;6.20;;;3.50;;
67352;SDS011;54238;52.278;21.056;2023-06-14T12:39:37;5.90;;;3.20;;
67352;SDS011;54238;52.278;21.056;2023-06-14T12:42:09;5.80;;;3.20;;
67352;SDS011;54238;52.278;21.056;2023-06-14T12:44:36;5.30;;;2.60;;
67352;SDS011;54238;52.278;21.056;2023-06-14T12:47:07;4.70;;;2.40;;
67352;SDS011;54238;52.278;21.056;2023-06-14T12:49:35;4.00;;;2.20;;
67352;SDS011;54238;52.278;21.056;2023-06-14T12:52:02;2.30;;;2.00;;
67352;SDS011;54238;52.278;21.056;2023-06-14T12:54:32;7.00;;;2.40;;
67352;SDS011;54238;52.278;21.056;2023-06-14T12:56:59;7.10;;;2.60;;
67352;SDS011;54238;52.278;21.056;2023-06-14T12:59:28;3.20;;;2.00;;
67352;SDS011;54238;52.278;21.056;2023-06-14T13:02:16;3.20;;;2.00;;
67352;SDS011;54238;52.278;21.056;2023-06-14T13:04:50;4.10;;;2.10;;
67352;SDS011;54238;52.278;21.056;2023-06-14T13:07:22;4.70;;;2.30;;
67352;SDS011;54238;52.278;21.056;2023-06-14T13:09:49;7.90;;;2.40;;
67352;SDS011;54238;52.278;21.056;2023-06-14T13:12:21;4.60;;;2.50;;
67352;SDS011;54238;52.278;21.056;2023-06-14T13:14:51;7.90;;;2.10;;
67352;SDS011;54238;52.278;21.056;2023-06-14T13:17:18;4.10;;;2.40;;
67352;SDS011;54238;52.278;21.056;2023-06-14T13:19:46;4.00;;;2.10;;
67352;SDS011;54238;52.278;21.056;2023-06-14T13:22:13;7.40;;;2.50;;
67352;SDS011;54238;52.278;21.056;2023-06-14T13:24:42;5.00;;;2.50;;
67352;SDS011;54238;52.278;21.056;2023-06-14T13:27:09;4.10;;;2.20;;
67352;SDS011;54238;52.278;21.056;2023-06-14T13:29:41;3.50;;;2.40;;
67352;SDS011;54238;52.278;21.056;2023-06-14T13:32:08;3.50;;;2.60;;
67352;SDS011;54238;52.278;21.056;2023-06-14T13:34:35;7.60;;;2.60;;
67352;SDS011;54238;52.278;21.056;2023-06-14T13:37:08;6.10;;;2.60;;
67352;SDS011;54238;52.278;21.056;2023-06-14T13:39:39;5.80;;;3.10;;
67352;SDS011;54238;52.278;21.056;2023-06-14T13:42:11;6.80;;;2.80;;
67352;SDS011;54238;52.278;21.056;2023-06-14T13:44:43;5.40;;;2.90;;
67352;SDS011;54238;52.278;21.056;2023-06-14T13:47:17;4.20;;;2.90;;
67352;SDS011;54238;52.278;21.056;2023-06-14T13:49:46;4.50;;;2.50;;
67352;SDS011;54238;52.278;21.056;2023-06-14T13:52:15;7.10;;;3.00;;
67352;SDS011;54238;52.278;21.056;2023-06-14T13:54:43;4.60;;;2.90;;
67352;SDS011;54238;52.278;21.056;2023-06-14T13:57:10;5.70;;;2.70;;
67352;SDS011;54238;52.278;21.056;2023-06-14T13:59:40;4.30;;;2.90;;
67352;SDS011;54238;52.278;21.056;2023-06-14T14:02:13;4.60;;;3.00;;
67352;SDS011;54238;52.278;21.056;2023-06-14T14:04:45;7.50;;;2.90;;
67352;SDS011;54238;52.278;21.056;2023-06-14T14:07:19;6.80;;;3.10;;
67352;SDS011;54238;52.278;21.056;2023-06-14T14:09:47;6.00;;;3.20;;
67352;SDS011;54238;52.278;21.056;2023-06-14T14:12:21;5.30;;;2.80;;
67352;SDS011;54238;52.278;21.056;2023-06-14T14:14:52;4.40;;;2.70;;
67352;SDS011;54238;52.278;21.056;2023-06-14T14:17:22;5.80;;;2.90;;
67352;SDS011;54238;52.278;21.056;2023-06-14T14:19:52;6.70;;;3.30;;
67352;SDS011;54238;52.278;21.056;2023-06-14T14:22:21;6.00;;;2.90;;
67352;SDS011;54238;52.278;21.056;2023-06-14T14:24:51;15.10;;;3.20;;
67352;SDS011;54238;52.278;21.056;2023-06-14T14:27:20;3.30;;;2.50;;
67352;SDS011;54238;52.278;21.056;2023-06-14T14:29:50;4.20;;;2.20;;
67352;SDS011;54238;52.278;21.056;2023-06-14T14:32:17;5.30;;;2.80;;
67352;SDS011;54238;52.278;21.056;2023-06-14T14:34:44;7.50;;;3.40;;
67352;SDS011;54238;52.278;21.056;2023-06-14T14:37:11;6.90;;;3.10;;
67352;SDS011;54238;52.278;21.056;2023-06-14T14:39:41;4.30;;;3.00;;
67352;SDS011;54238;52.278;21.056;2023-06-14T14:42:15;7.60;;;3.30;;
67352;SDS011;54238;52.278;21.056;2023-06-14T14:44:47;7.00;;;3.30;;
67352;SDS011;54238;52.278;21.056;2023-06-14T14:47:20;6.50;;;3.00;;
67352;SDS011;54238;52.278;21.056;2023-06-14T14:49:47;6.80;;;3.40;;
67352;SDS011;54238;52.278;21.056;2023-06-14T14:52:19;7.80;;;3.30;;
67352;SDS011;54238;52.278;21.056;2023-06-14T14:54:47;4.00;;;3.30;;
67352;SDS011;54238;52.278;21.056;2023-06-14T14:57:14;7.50;;;3.40;;
67352;SDS011;54238;52.278;21.056;2023-06-14T14:59:43;4.60;;;2.60;;